createdAt,value
2018-05-23T00:01:47.424Z,17.80
2018-05-23T00:04:15.671Z,17.90
2018-05-23T00:06:43.378Z,17.90
2018-05-23T00:09:16.012Z,17.80
2018-05-23T00:11:43.773Z,17.80
2018-05-23T00:14:11.282Z,17.80
2018-05-23T00:16:38.743Z,17.70
2018-05-23T00:19:06.244Z,17.70
2018-05-23T00:21:33.716Z,17.70
2018-05-23T00:24:01.288Z,17.70
2018-05-23T00:26:29.536Z,17.70
2018-05-23T00:28:57.015Z,17.70
2018-05-23T00:31:25.257Z,17.70
2018-05-23T00:33:52.740Z,17.70
2018-05-23T00:36:20.213Z,17.80
2018-05-23T00:38:48.464Z,17.80
2018-05-23T00:41:15.940Z,17.80
2018-05-23T00:43:43.581Z,17.80
2018-05-23T00:46:11.056Z,17.80
2018-05-23T00:48:38.549Z,17.80
2018-05-23T00:51:06.027Z,17.80
2018-05-23T00:53:33.519Z,17.80
2018-05-23T00:56:00.992Z,17.90
2018-05-23T00:58:28.489Z,17.90
2018-05-23T01:00:55.976Z,17.90
2018-05-23T01:03:23.447Z,18.00
2018-05-23T01:05:50.940Z,18.00
2018-05-23T01:08:18.563Z,17.90
2018-05-23T01:10:46.137Z,17.90
2018-05-23T01:13:14.516Z,17.70
2018-05-23T01:15:41.989Z,17.70
2018-05-23T01:18:10.248Z,17.80
2018-05-23T01:20:37.711Z,17.80
2018-05-23T01:23:05.979Z,17.80
2018-05-23T01:25:33.444Z,17.80
2018-05-23T01:28:01.709Z,17.80
2018-05-23T01:30:29.184Z,17.70
2018-05-23T01:32:57.424Z,17.80
2018-05-23T01:35:24.904Z,17.80
2018-05-23T01:37:52.387Z,17.80
2018-05-23T01:40:19.875Z,17.80
2018-05-23T01:42:47.371Z,17.80
2018-05-23T01:45:14.854Z,17.90
2018-05-23T01:47:43.116Z,17.90
2018-05-23T01:50:10.667Z,17.80
2018-05-23T01:52:38.131Z,17.80
2018-05-23T01:55:06.522Z,17.80
2018-05-23T01:57:34.761Z,17.80
2018-05-23T02:00:02.367Z,17.80
2018-05-23T02:02:29.871Z,17.70
2018-05-23T02:04:57.356Z,17.70
2018-05-23T02:07:24.825Z,17.60
2018-05-23T02:09:53.064Z,17.70
2018-05-23T02:12:20.545Z,17.70
2018-05-23T02:14:48.817Z,17.70
2018-05-23T02:17:16.291Z,17.70
2018-05-23T02:19:44.559Z,17.70
2018-05-23T02:22:12.035Z,17.70
2018-05-23T02:24:40.271Z,17.60
2018-05-23T02:27:07.757Z,17.60
2018-05-23T02:29:35.996Z,17.60
2018-05-23T02:32:03.486Z,17.60
2018-05-23T02:34:31.720Z,17.60
2018-05-23T02:36:59.217Z,17.60
2018-05-23T02:39:27.465Z,17.60
2018-05-23T02:41:54.956Z,17.60
2018-05-23T02:44:22.453Z,17.60
2018-05-23T02:46:49.943Z,17.60
2018-05-23T02:49:17.508Z,17.50
2018-05-23T02:51:45.078Z,17.50
2018-05-23T02:54:12.541Z,17.50
2018-05-23T02:56:40.812Z,17.40
2018-05-23T02:59:08.274Z,17.40
2018-05-23T03:01:36.596Z,17.50
2018-05-23T03:04:04.090Z,17.40
2018-05-23T03:06:31.573Z,17.40
2018-05-23T03:08:59.068Z,17.50
2018-05-23T03:11:26.549Z,17.40
2018-05-23T03:13:54.206Z,17.40
2018-05-23T03:16:21.672Z,17.30
2018-05-23T03:18:49.163Z,17.30
2018-05-23T03:21:17.395Z,17.30
2018-05-23T03:23:44.885Z,17.30
2018-05-23T03:26:13.124Z,17.30
2018-05-23T03:28:40.605Z,17.30
2018-05-23T03:31:08.078Z,17.30
2018-05-23T03:33:36.316Z,17.30
2018-05-23T03:36:03.804Z,17.30
2018-05-23T03:38:32.053Z,17.30
2018-05-23T03:40:59.531Z,17.30
2018-05-23T03:43:27.023Z,17.30
2018-05-23T03:45:54.490Z,17.30
2018-05-23T03:48:21.980Z,17.30
2018-05-23T03:50:49.764Z,17.20
2018-05-23T03:53:17.245Z,17.30
2018-05-23T03:55:45.504Z,17.30
2018-05-23T03:58:12.998Z,17.30
2018-05-23T04:00:52.312Z,17.30
2018-05-23T04:03:32.441Z,17.20
2018-05-23T04:06:11.961Z,17.20
2018-05-23T04:08:39.438Z,17.20
2018-05-23T04:11:07.781Z,17.20
2018-05-23T04:13:35.254Z,17.20
2018-05-23T04:16:02.731Z,17.20
2018-05-23T04:18:30.200Z,17.30
2018-05-23T04:20:58.449Z,17.20
2018-05-23T04:23:25.954Z,17.20
2018-05-23T04:25:54.201Z,17.20
2018-05-23T04:28:21.677Z,17.20
2018-05-23T04:30:50.294Z,17.30
2018-05-23T04:33:17.769Z,17.30
2018-05-23T04:35:45.259Z,17.30
2018-05-23T04:38:12.725Z,17.40
2018-05-23T04:40:40.974Z,17.40
2018-05-23T04:43:08.453Z,17.40
2018-05-23T04:45:36.006Z,17.40
2018-05-23T04:48:03.431Z,17.40
2018-05-23T04:50:30.922Z,17.40
2018-05-23T04:52:58.413Z,17.40
2018-05-23T04:55:25.893Z,17.50
2018-05-23T04:57:53.499Z,17.40
2018-05-23T05:00:20.956Z,17.40
2018-05-23T05:02:49.518Z,17.40
2018-05-23T05:05:16.985Z,17.40
2018-05-23T05:07:44.478Z,17.40
2018-05-23T05:10:11.967Z,17.50
2018-05-23T05:12:39.439Z,17.50
2018-05-23T05:15:06.918Z,17.50
2018-05-23T05:17:34.408Z,17.50
2018-05-23T05:20:01.900Z,17.50
2018-05-23T05:22:29.373Z,17.50
2018-05-23T05:24:56.901Z,17.50
2018-05-23T05:27:24.328Z,17.60
2018-05-23T05:29:52.577Z,17.60
2018-05-23T05:32:20.085Z,17.60
2018-05-23T05:34:47.561Z,17.70
2018-05-23T05:37:15.056Z,17.70
2018-05-23T05:39:42.576Z,17.70
2018-05-23T05:42:10.065Z,17.70
2018-05-23T05:44:37.747Z,17.70
2018-05-23T05:47:05.980Z,17.70
2018-05-23T05:49:33.458Z,17.70
2018-05-23T05:52:01.704Z,17.60
2018-05-23T05:54:29.198Z,17.60
2018-05-23T05:56:56.664Z,17.60
2018-05-23T05:59:24.921Z,17.60
2018-05-23T06:01:52.448Z,17.60
2018-05-23T06:04:20.637Z,17.60
2018-05-23T06:06:48.112Z,17.60
2018-05-23T06:09:15.690Z,17.60
2018-05-23T06:11:43.153Z,17.70
2018-05-23T06:14:10.809Z,17.70
2018-05-23T06:16:39.084Z,17.70
2018-05-23T06:19:07.344Z,17.70
2018-05-23T06:21:34.820Z,17.60
2018-05-23T06:24:04.751Z,17.80
2018-05-23T06:26:33.020Z,17.90
2018-05-23T06:29:01.286Z,17.80
2018-05-23T06:31:28.792Z,17.80
2018-05-23T06:33:56.277Z,17.80
2018-05-23T06:36:23.781Z,17.80
2018-05-23T06:38:51.290Z,17.90
2018-05-23T06:41:19.585Z,18.00
2018-05-23T06:43:47.076Z,18.00
2018-05-23T06:46:14.603Z,18.10
2018-05-23T06:48:42.092Z,18.10
2018-05-23T06:51:09.601Z,18.20
2018-05-23T06:53:37.883Z,18.20
2018-05-23T06:56:05.397Z,18.20
2018-05-23T06:58:32.921Z,18.30
2018-05-23T07:01:01.181Z,18.40
2018-05-23T07:03:28.720Z,18.40
2018-05-23T07:05:56.231Z,18.50
2018-05-23T07:08:23.737Z,18.60
2018-05-23T07:10:51.284Z,18.60
2018-05-23T07:13:18.771Z,18.60
2018-05-23T07:15:46.354Z,18.60
2018-05-23T07:18:14.670Z,18.80
2018-05-23T07:20:42.072Z,18.80
2018-05-23T07:23:10.324Z,18.90
2018-05-23T07:25:37.839Z,18.90
2018-05-23T07:28:05.348Z,19.00
2018-05-23T07:30:32.841Z,19.00
2018-05-23T07:33:00.356Z,19.10
2018-05-23T07:35:27.850Z,19.20
2018-05-23T07:37:56.126Z,19.40
2018-05-23T07:40:24.516Z,19.40
2018-05-23T07:42:52.372Z,19.40
2018-05-23T07:45:20.679Z,19.50
2018-05-23T07:47:48.155Z,19.50
2018-05-23T07:50:16.243Z,19.70
2018-05-23T07:52:44.516Z,19.80
2018-05-23T07:55:12.043Z,19.90
2018-05-23T07:57:39.527Z,20.00
2018-05-23T08:00:07.022Z,19.90
2018-05-23T08:02:35.267Z,20.10
2018-05-23T08:05:02.738Z,20.10
2018-05-23T08:07:30.228Z,20.00
2018-05-23T08:09:57.732Z,20.20
2018-05-23T08:12:25.218Z,20.30
2018-05-23T08:14:53.050Z,20.40
2018-05-23T08:17:20.528Z,20.50
2018-05-23T08:19:48.787Z,20.80
2018-05-23T08:22:16.480Z,20.80
2018-05-23T08:24:44.723Z,21.10
2018-05-23T08:27:12.209Z,21.00
2018-05-23T08:29:40.514Z,21.30
2018-05-23T08:32:08.118Z,21.20
2018-05-23T08:34:35.613Z,21.30
2018-05-23T08:37:03.929Z,21.30
2018-05-23T08:39:31.445Z,21.30
2018-05-23T08:41:59.713Z,21.60
2018-05-23T08:44:27.220Z,21.60
2018-05-23T08:46:55.508Z,21.90
2018-05-23T08:49:23.017Z,21.80
2018-05-23T08:51:51.242Z,22.20
2018-05-23T08:54:18.740Z,22.20
2018-05-23T08:56:47.034Z,22.70
2018-05-23T08:59:15.626Z,22.90
2018-05-23T09:01:43.124Z,22.80
2018-05-23T09:04:10.824Z,23.00
2018-05-23T09:06:39.064Z,23.00
2018-05-23T09:09:06.563Z,23.00
2018-05-23T09:11:34.843Z,23.10
2018-05-23T09:14:04.412Z,23.30
2018-05-23T09:16:31.903Z,23.20
2018-05-23T09:19:00.163Z,23.60
2018-05-23T09:21:27.645Z,23.60
2018-05-23T09:23:56.151Z,23.90
2018-05-23T09:26:23.640Z,23.90
2018-05-23T09:28:51.162Z,23.80
2018-05-23T09:31:18.689Z,23.90
2018-05-23T09:33:46.937Z,24.00
2018-05-23T09:36:14.440Z,24.00
2018-05-23T09:38:41.905Z,24.10
2018-05-23T09:41:09.383Z,24.20
2018-05-23T09:43:36.869Z,24.20
2018-05-23T09:46:04.416Z,24.30
2018-05-23T09:48:31.902Z,24.40
2018-05-23T09:51:00.169Z,24.70
2018-05-23T09:53:27.636Z,24.70
2018-05-23T09:55:56.371Z,25.00
2018-05-23T09:58:23.831Z,25.00
2018-05-23T10:00:51.485Z,25.00
2018-05-23T10:03:19.045Z,24.80
2018-05-23T10:05:46.529Z,24.90
2018-05-23T10:08:14.093Z,25.00
2018-05-23T10:10:41.570Z,25.00
2018-05-23T10:13:09.050Z,25.00
2018-05-23T10:15:37.311Z,24.50
2018-05-23T10:18:05.544Z,24.70
2018-05-23T10:20:33.083Z,24.60
2018-05-23T10:23:00.703Z,24.80
2018-05-23T10:28:21.541Z,24.90
2018-05-23T10:30:49.823Z,24.20
2018-05-23T10:33:17.528Z,24.20
2018-05-23T10:35:44.954Z,24.10
2018-05-23T10:38:12.448Z,24.20
2018-05-23T10:40:39.927Z,24.30
2018-05-23T10:43:08.185Z,24.30
2018-05-23T10:45:35.663Z,24.30
2018-05-23T10:48:03.932Z,24.10
2018-05-23T10:50:31.407Z,24.00
2018-05-23T10:52:59.647Z,23.80
2018-05-23T10:55:27.124Z,23.80
2018-05-23T10:57:54.595Z,23.90
2018-05-23T11:00:22.847Z,23.80
2018-05-23T11:02:50.428Z,23.80
2018-05-23T11:05:17.820Z,23.80
2018-05-23T11:07:45.320Z,23.70
2018-05-23T11:10:12.827Z,23.60
2018-05-23T11:12:40.308Z,23.40
2018-05-23T11:15:07.879Z,23.30
2018-05-23T11:17:35.280Z,23.30
2018-05-23T11:20:03.537Z,23.20
2018-05-23T11:22:31.008Z,23.10
2018-05-23T11:24:59.269Z,23.10
2018-05-23T11:27:26.721Z,23.00
2018-05-23T11:29:54.965Z,22.80
2018-05-23T11:32:22.433Z,22.80
2018-05-23T11:34:49.924Z,22.70
2018-05-23T11:37:18.158Z,22.50
2018-05-23T11:39:45.635Z,22.50
2018-05-23T11:42:13.912Z,22.30
2018-05-23T11:44:41.389Z,22.30
2018-05-23T11:47:09.657Z,22.10
2018-05-23T11:49:37.115Z,22.10
2018-05-23T11:52:05.387Z,21.70
2018-05-23T11:54:32.884Z,21.70
2018-05-23T11:57:01.122Z,21.40
2018-05-23T11:59:28.585Z,21.40
2018-05-23T12:01:56.900Z,21.40
2018-05-23T12:04:24.654Z,21.30
2018-05-23T12:06:52.140Z,21.50
2018-05-23T12:09:19.611Z,21.40
2018-05-23T12:11:47.090Z,21.50
2018-05-23T12:14:15.404Z,21.60
2018-05-23T12:16:42.876Z,21.60
2018-05-23T12:19:10.340Z,21.70
2018-05-23T12:21:37.841Z,21.60
2018-05-23T12:24:05.322Z,21.60
2018-05-23T12:26:33.543Z,21.60
2018-05-23T12:29:01.033Z,21.60
2018-05-23T12:31:28.499Z,21.70
2018-05-23T12:33:56.770Z,21.80
2018-05-23T12:36:25.007Z,21.80
2018-05-23T12:38:52.481Z,21.80
2018-05-23T12:41:19.982Z,21.90
2018-05-23T12:43:47.625Z,22.00
2018-05-23T12:46:15.875Z,22.00
2018-05-23T12:48:43.393Z,22.00
2018-05-23T12:51:10.895Z,22.10
2018-05-23T12:53:38.372Z,22.20
2018-05-23T12:56:06.605Z,22.20
2018-05-23T12:58:34.168Z,22.10
2018-05-23T13:01:02.080Z,22.30
2018-05-23T13:03:29.662Z,22.10
2018-05-23T13:05:57.894Z,22.20
2018-05-23T13:08:26.148Z,22.20
2018-05-23T13:10:53.627Z,22.20
2018-05-23T13:13:21.104Z,22.20
2018-05-23T13:15:48.595Z,22.30
2018-05-23T13:18:16.075Z,22.40
2018-05-23T13:20:43.556Z,22.30
2018-05-23T13:23:11.138Z,22.30
2018-05-23T13:25:38.656Z,22.30
2018-05-23T13:28:06.124Z,22.30
2018-05-23T13:30:33.640Z,22.30
2018-05-23T13:33:01.126Z,22.40
2018-05-23T13:35:28.628Z,22.60
2018-05-23T13:37:56.859Z,23.10
2018-05-23T13:40:24.350Z,23.10
2018-05-23T13:42:52.601Z,23.60
2018-05-23T13:45:20.078Z,23.60
2018-05-23T13:47:47.584Z,23.70
2018-05-23T13:50:15.073Z,24.10
2018-05-23T13:52:42.542Z,24.30
2018-05-23T13:55:10.150Z,24.30
2018-05-23T13:57:37.538Z,24.60
2018-05-23T14:00:05.076Z,24.90
2018-05-23T14:02:32.563Z,25.10
2018-05-23T14:05:00.126Z,25.10
2018-05-23T14:07:27.635Z,25.10
2018-05-23T14:09:55.096Z,25.20
2018-05-23T14:12:22.600Z,25.30
2018-05-23T14:14:50.123Z,25.00
2018-05-23T14:17:17.590Z,24.70
2018-05-23T14:19:45.118Z,24.60
2018-05-23T14:22:12.585Z,24.70
2018-05-23T14:24:40.102Z,24.70
2018-05-23T14:27:08.327Z,24.70
2018-05-23T14:29:35.819Z,24.70
2018-05-23T14:32:04.532Z,25.50
2018-05-23T14:34:32.767Z,25.60
2018-05-23T14:37:00.256Z,25.60
2018-05-23T14:39:27.741Z,25.50
2018-05-23T14:41:55.208Z,25.00
2018-05-23T14:44:22.723Z,24.80
2018-05-23T14:46:50.193Z,24.70
2018-05-23T14:49:18.451Z,24.20
2018-05-23T14:51:45.925Z,24.20
2018-05-23T14:54:13.421Z,24.10
2018-05-23T14:56:40.917Z,24.10
2018-05-23T14:59:09.905Z,24.20
2018-05-23T15:01:37.396Z,24.20
2018-05-23T15:04:06.058Z,24.70
2018-05-23T15:06:33.548Z,24.60
2018-05-23T15:09:01.040Z,24.90
2018-05-23T15:11:28.621Z,24.90
2018-05-23T15:13:56.101Z,25.00
2018-05-23T15:16:23.604Z,24.90
2018-05-23T15:18:51.073Z,24.80
2018-05-23T15:21:18.564Z,25.00
2018-05-23T15:23:46.119Z,24.90
2018-05-23T15:26:13.668Z,24.80
2018-05-23T15:28:41.152Z,24.90
2018-05-23T15:31:09.395Z,25.10
2018-05-23T15:33:36.928Z,25.10
2018-05-23T15:36:04.426Z,25.20
2018-05-23T15:38:31.907Z,25.30
2018-05-23T15:41:00.166Z,25.40
2018-05-23T15:43:27.689Z,25.30
2018-05-23T15:45:55.148Z,25.30
2018-05-23T15:48:22.639Z,25.20
2018-05-23T15:50:50.892Z,25.30
2018-05-23T15:53:18.371Z,25.30
2018-05-23T15:55:46.736Z,25.20
2018-05-23T15:58:14.220Z,25.20
2018-05-23T16:00:42.444Z,25.00
2018-05-23T16:03:09.955Z,25.00
2018-05-23T16:05:38.236Z,24.80
2018-05-23T16:08:06.687Z,24.80
2018-05-23T16:10:34.152Z,24.70
2018-05-23T16:13:02.397Z,24.60
2018-05-23T16:15:29.878Z,24.60
2018-05-23T16:17:57.376Z,24.50
2018-05-23T16:20:25.151Z,24.30
2018-05-23T16:22:52.615Z,24.20
2018-05-23T16:25:20.104Z,24.20
2018-05-23T16:27:47.687Z,24.10
2018-05-23T16:30:15.193Z,24.10
2018-05-23T16:32:42.660Z,24.00
2018-05-23T16:35:10.295Z,24.00
2018-05-23T16:37:37.853Z,23.90
2018-05-23T16:40:05.342Z,23.90
2018-05-23T16:42:32.983Z,23.80
2018-05-23T16:45:00.476Z,23.80
2018-05-23T16:47:27.974Z,23.80
2018-05-23T16:49:56.219Z,23.70
2018-05-23T16:52:23.688Z,23.60
2018-05-23T16:54:51.943Z,23.70
2018-05-23T16:57:19.448Z,23.60
2018-05-23T16:59:46.961Z,23.60
2018-05-23T17:02:14.455Z,23.60
2018-05-23T17:04:42.687Z,23.60
2018-05-23T17:07:10.492Z,23.60
2018-05-23T17:09:38.728Z,23.60
2018-05-23T17:12:06.213Z,23.60
2018-05-23T17:14:34.445Z,23.60
2018-05-23T17:17:02.124Z,23.60
2018-05-23T17:19:29.661Z,23.50
2018-05-23T17:21:57.137Z,23.50
2018-05-23T17:24:24.603Z,23.60
2018-05-23T17:26:52.091Z,23.50
2018-05-23T17:29:20.324Z,23.60
2018-05-23T17:31:53.806Z,23.60
2018-05-23T17:34:21.324Z,23.60
2018-05-23T17:36:49.572Z,23.50
2018-05-23T17:39:18.626Z,23.50
2018-05-23T17:41:46.119Z,23.50
2018-05-23T17:44:14.395Z,23.50
2018-05-23T17:46:41.872Z,23.40
2018-05-23T17:49:10.141Z,23.30
2018-05-23T17:51:38.444Z,23.30
2018-05-23T17:54:05.959Z,23.30
2018-05-23T17:56:33.420Z,23.20
2018-05-23T17:59:00.922Z,23.20
2018-05-23T18:01:28.393Z,23.20
2018-05-23T18:03:55.853Z,23.20
2018-05-23T18:06:23.433Z,23.20
2018-05-23T18:08:50.843Z,23.20
2018-05-23T18:11:18.656Z,23.10
2018-05-23T18:13:46.055Z,23.00
2018-05-23T18:16:14.329Z,23.00
2018-05-23T18:18:42.587Z,23.00
2018-05-23T18:21:10.063Z,23.00
2018-05-23T18:23:38.322Z,22.90
2018-05-23T18:26:06.571Z,22.90
2018-05-23T18:28:34.171Z,22.80
2018-05-23T18:31:01.632Z,22.80
2018-05-23T18:33:29.921Z,22.80
2018-05-23T18:35:57.540Z,22.80
2018-05-23T18:38:25.188Z,22.80
2018-05-23T18:40:52.693Z,22.80
2018-05-23T18:43:21.010Z,22.80
2018-05-23T18:45:48.464Z,22.70
2018-05-23T18:48:15.994Z,22.70
2018-05-23T18:50:43.505Z,22.70
2018-05-23T18:53:11.201Z,22.70
2018-05-23T18:55:39.455Z,22.60
2018-05-23T18:58:06.987Z,22.60
2018-05-23T19:00:34.717Z,22.60
2018-05-23T19:03:02.296Z,22.50
2018-05-23T19:05:29.813Z,22.60
2018-05-23T19:07:58.069Z,22.50
2018-05-23T19:10:25.662Z,22.50
2018-05-23T19:12:53.279Z,22.50
2018-05-23T19:15:20.768Z,22.40
2018-05-23T19:17:48.290Z,22.40
2018-05-23T19:20:15.879Z,22.40
2018-05-23T19:22:43.350Z,22.30
2018-05-23T19:25:10.888Z,22.20
2018-05-23T19:27:39.144Z,22.20
2018-05-23T19:30:06.641Z,22.20
2018-05-23T19:32:34.258Z,22.20
2018-05-23T19:35:01.795Z,22.10
2018-05-23T19:37:29.309Z,22.10
2018-05-23T19:39:57.554Z,22.00
2018-05-23T19:42:25.068Z,22.00
2018-05-23T19:44:52.843Z,22.00
2018-05-23T19:47:20.413Z,21.90
2018-05-23T19:49:47.884Z,21.80
2018-05-23T19:52:15.382Z,21.90
2018-05-23T19:54:43.702Z,21.80
2018-05-23T19:57:11.233Z,21.80
2018-05-23T19:59:38.746Z,21.70
2018-05-23T20:02:06.322Z,21.70
2018-05-23T20:04:33.936Z,21.70
2018-05-23T20:07:01.418Z,21.60
2018-05-23T20:09:28.968Z,21.50
2018-05-23T20:11:56.456Z,21.50
2018-05-23T20:14:24.033Z,21.50
2018-05-23T20:16:52.300Z,21.40
2018-05-23T20:19:20.594Z,21.50
2018-05-23T20:21:48.163Z,21.40
2018-05-23T20:24:15.666Z,21.40
2018-05-23T20:26:43.946Z,21.40
2018-05-23T20:29:11.512Z,21.40
2018-05-23T20:31:38.978Z,21.40
2018-05-23T20:34:07.286Z,21.50
2018-05-23T20:36:34.787Z,21.40
2018-05-23T20:39:02.266Z,21.50
2018-05-23T20:41:29.782Z,21.50
2018-05-23T20:43:57.277Z,21.50
2018-05-23T20:46:25.561Z,21.40
2018-05-23T20:48:53.102Z,21.40
2018-05-23T20:51:20.613Z,21.40
2018-05-23T20:53:48.163Z,21.40
2018-05-23T21:09:15.737Z,21.30
2018-05-23T21:11:43.206Z,21.20
2018-05-23T21:14:10.744Z,21.20
2018-05-23T21:16:38.230Z,21.20
2018-05-23T21:19:05.708Z,21.10
2018-05-23T21:21:33.172Z,21.10
2018-05-23T21:24:01.409Z,21.20
2018-05-23T21:26:28.906Z,21.20
2018-05-23T21:28:57.301Z,21.10
2018-05-23T21:31:24.823Z,21.10
2018-05-23T21:33:52.315Z,21.00
2018-05-23T21:36:19.813Z,21.00
2018-05-23T21:38:47.303Z,21.00
2018-05-23T21:41:14.794Z,21.00
2018-05-23T21:43:43.051Z,20.90
2018-05-23T21:46:11.332Z,20.90
2018-05-23T21:48:39.620Z,20.80
2018-05-23T21:51:07.101Z,20.80
2018-05-23T21:53:34.588Z,20.90
2018-05-23T21:56:02.084Z,20.90
2018-05-23T21:58:30.341Z,20.90
2018-05-23T22:00:57.824Z,20.90
2018-05-23T22:03:25.312Z,20.90
2018-05-23T22:05:52.783Z,20.90
2018-05-23T22:08:20.264Z,20.80
2018-05-23T22:10:47.833Z,20.90
2018-05-23T22:13:16.081Z,20.80
2018-05-23T22:15:43.581Z,20.80
2018-05-23T22:18:11.829Z,20.70
2018-05-23T22:20:39.308Z,20.70
2018-05-23T22:23:07.553Z,20.80
2018-05-23T22:25:35.084Z,20.70
2018-05-23T22:28:02.562Z,20.80
2018-05-23T22:30:30.097Z,20.70
2018-05-23T22:32:57.609Z,20.80
2018-05-23T22:35:26.016Z,20.70
2018-05-23T22:37:53.500Z,20.70
2018-05-23T22:40:21.016Z,20.70
2018-05-23T22:42:49.260Z,20.80
2018-05-23T22:45:16.747Z,20.70
2018-05-23T22:47:45.036Z,20.60
2018-05-23T22:50:12.688Z,20.60
2018-05-23T22:52:40.172Z,20.60
2018-05-23T22:55:07.660Z,20.60
2018-05-23T22:57:35.174Z,20.50
2018-05-23T23:00:02.698Z,20.50
2018-05-23T23:02:30.213Z,20.50
2018-05-23T23:04:57.732Z,20.50
2018-05-23T23:07:26.026Z,20.40
2018-05-23T23:09:53.499Z,20.40
2018-05-23T23:12:21.015Z,20.50
2018-05-23T23:14:48.485Z,20.40
2018-05-23T23:17:16.804Z,20.40
2018-05-23T23:19:44.330Z,20.40
2018-05-23T23:25:05.320Z,20.30
2018-05-23T23:27:32.822Z,20.20
2018-05-23T23:30:00.377Z,20.20
2018-05-23T23:32:27.900Z,20.10
2018-05-23T23:34:55.368Z,20.10
2018-05-23T23:37:23.628Z,20.10
2018-05-23T23:39:51.108Z,20.10
2018-05-23T23:42:19.344Z,20.10
2018-05-23T23:44:46.984Z,20.00
2018-05-23T23:47:14.472Z,20.10
2018-05-23T23:49:42.264Z,20.10
2018-05-23T23:52:09.577Z,20.10
2018-05-23T23:54:37.143Z,20.00
2018-05-23T23:57:05.318Z,19.90
2018-05-23T23:59:32.805Z,19.90
